Time;durP1;ratioP1;P1;durP2;ratioP2;P2;SDS_P1;SDS_P2;PMS_P1;PMS_P2;Temp;Humidity;BMP_temperature;BMP_pressure;BME280_temperature;BME280_humidity;BME280_pressure;Samples;Min_cycle;Max_cycle;Signal;HPM_P1;HPM_P2
2023/06/04 00:00:06;;;;;;;24.40;7.15;;;;;;;;;;4991688;28;20621;-46
2023/06/04 00:02:33;;;;;;;27.13;6.80;;;;;;;;;;4991650;28;20522;-45
2023/06/04 00:05:00;;;;;;;31.80;7.63;;;;;;;;;;4990263;28;20031;-45
2023/06/04 00:07:27;;;;;;;24.98;7.22;;;;;;;;;;4991969;28;20038;-45
2023/06/04 00:09:54;;;;;;;24.50;6.82;;;;;;;;;;4997936;28;20037;-41
2023/06/04 00:12:21;;;;;;;22.23;6.60;;;;;;;;;;5014821;28;20048;-43
2023/06/04 00:14:48;;;;;;;16.27;6.45;;;;;;;;;;5013218;28;20033;-42
2023/06/04 00:17:15;;;;;;;24.90;6.90;;;;;;;;;;5011720;28;20026;-44
2023/06/04 00:19:42;;;;;;;18.65;7.28;;;;;;;;;;4994886;28;20405;-43
2023/06/04 00:22:09;;;;;;;19.48;6.82;;;;;;;;;;5010094;28;20037;-44
2023/06/04 00:24:40;;;;;;;20.38;7.32;;;;;;;;;;5012938;28;20034;-54
2023/06/04 00:27:08;;;;;;;22.13;7.30;;;;;;;;;;5008088;28;20050;-41
2023/06/04 00:29:35;;;;;;;28.60;7.28;;;;;;;;;;4996511;28;20380;-44
2023/06/04 00:32:02;;;;;;;22.75;7.10;;;;;;;;;;5006594;28;20042;-46
2023/06/04 00:34:29;;;;;;;22.23;7.40;;;;;;;;;;5010395;28;20029;-45
2023/06/04 00:36:56;;;;;;;21.85;6.80;;;;;;;;;;5011067;28;20109;-42
2023/06/04 00:39:23;;;;;;;17.27;7.40;;;;;;;;;;5003998;28;20108;-45
2023/06/04 00:41:50;;;;;;;21.13;7.25;;;;;;;;;;5000771;28;20052;-44
2023/06/04 00:44:17;;;;;;;29.05;8.68;;;;;;;;;;5013998;28;20033;-45
2023/06/04 00:46:45;;;;;;;22.88;8.82;;;;;;;;;;5012405;28;20112;-46
2023/06/04 00:49:12;;;;;;;20.42;8.80;;;;;;;;;;4996035;28;20396;-45
2023/06/04 00:51:39;;;;;;;21.23;8.60;;;;;;;;;;5013834;28;20037;-43
2023/06/04 00:54:08;;;;;;;25.80;9.23;;;;;;;;;;5014193;28;20040;-46
2023/06/04 00:56:38;;;;;;;22.25;8.48;;;;;;;;;;5012096;28;20050;-44
2023/06/04 00:59:06;;;;;;;25.85;10.00;;;;;;;;;;5013428;28;20030;-42
2023/06/04 01:01:52;;;;;;;25.25;9.35;;;;;;;;;;5013714;28;20125;-44
2023/06/04 01:04:34;;;;;;;21.10;8.68;;;;;;;;;;5012834;28;20104;-43
2023/06/04 01:07:03;;;;;;;23.33;10.07;;;;;;;;;;5008859;28;20037;-44
2023/06/04 01:09:33;;;;;;;21.98;9.90;;;;;;;;;;4994242;28;20033;-44
2023/06/04 01:12:01;;;;;;;25.23;9.88;;;;;;;;;;5006610;28;20100;-43
2023/06/04 01:14:29;;;;;;;27.10;9.23;;;;;;;;;;4993757;28;20042;-42
2023/06/04 01:17:01;;;;;;;20.83;8.93;;;;;;;;;;4993785;28;20023;-42
2023/06/04 01:19:37;;;;;;;19.38;8.85;;;;;;;;;;4993507;28;20057;-45
2023/06/04 01:22:11;;;;;;;19.77;9.13;;;;;;;;;;5005302;28;20026;-43
2023/06/04 01:24:38;;;;;;;21.83;8.77;;;;;;;;;;4994912;28;20038;-46
2023/06/04 01:27:07;;;;;;;19.20;8.75;;;;;;;;;;5004927;28;20433;-43
2023/06/04 01:29:36;;;;;;;23.80;9.25;;;;;;;;;;4985358;28;20041;-42
2023/06/04 01:32:03;;;;;;;23.10;9.27;;;;;;;;;;4999198;28;20045;-45
2023/06/04 01:34:30;;;;;;;22.80;10.23;;;;;;;;;;5013395;28;20045;-42
2023/06/04 01:36:57;;;;;;;19.95;10.50;;;;;;;;;;4998602;28;20036;-42
2023/06/04 01:39:24;;;;;;;19.35;9.15;;;;;;;;;;5013180;28;20577;-45
2023/06/04 01:41:51;;;;;;;22.60;9.57;;;;;;;;;;5007499;28;20036;-45
2023/06/04 01:44:18;;;;;;;18.83;8.95;;;;;;;;;;4980768;28;20554;-44
2023/06/04 01:46:45;;;;;;;15.80;9.13;;;;;;;;;;5019616;28;20718;-44
2023/06/04 01:49:12;;;;;;;16.83;8.48;;;;;;;;;;5013895;28;20384;-45
2023/06/04 01:51:40;;;;;;;16.95;8.65;;;;;;;;;;4983896;28;20034;-41
2023/06/04 01:54:07;;;;;;;33.63;8.85;;;;;;;;;;5001727;28;20043;-42
2023/06/04 01:56:34;;;;;;;21.27;7.93;;;;;;;;;;4988683;28;20042;-47
2023/06/04 01:59:02;;;;;;;14.68;7.53;;;;;;;;;;5012479;28;20518;-43
2023/06/04 02:01:29;;;;;;;16.67;7.90;;;;;;;;;;5012772;28;20057;-42
2023/06/04 02:03:56;;;;;;;24.42;8.45;;;;;;;;;;5012691;28;20476;-43
2023/06/04 02:06:24;;;;;;;17.25;7.72;;;;;;;;;;4998217;28;20045;-43
2023/06/04 02:08:53;;;;;;;17.58;8.27;;;;;;;;;;4992921;28;20080;-42
2023/06/04 02:11:20;;;;;;;21.02;9.30;;;;;;;;;;5005840;28;20042;-45
2023/06/04 02:13:47;;;;;;;14.95;7.78;;;;;;;;;;5007515;28;20034;-46
2023/06/04 02:16:14;;;;;;;19.63;7.93;;;;;;;;;;4997642;28;20042;-43
2023/06/04 02:18:41;;;;;;;19.13;7.75;;;;;;;;;;5004926;28;20076;-45
2023/06/04 02:21:08;;;;;;;17.00;7.80;;;;;;;;;;5010239;28;20034;-48
2023/06/04 02:23:36;;;;;;;17.38;7.65;;;;;;;;;;5011398;28;20053;-47
2023/06/04 02:26:03;;;;;;;20.08;8.38;;;;;;;;;;5011264;28;20042;-43
2023/06/04 02:28:30;;;;;;;17.35;7.45;;;;;;;;;;5011230;28;20033;-44
2023/06/04 02:30:57;;;;;;;17.00;7.18;;;;;;;;;;5010898;28;20030;-49
2023/06/04 02:33:24;;;;;;;15.55;6.82;;;;;;;;;;5011225;28;20046;-43
2023/06/04 02:35:51;;;;;;;18.38;7.65;;;;;;;;;;5009476;28;20496;-44
2023/06/04 02:38:19;;;;;;;16.33;7.15;;;;;;;;;;5011500;28;20033;-46
2023/06/04 02:40:46;;;;;;;20.40;6.80;;;;;;;;;;5010129;28;20113;-46
2023/06/04 02:43:13;;;;;;;15.45;6.70;;;;;;;;;;5007703;28;20029;-46
2023/06/04 02:45:40;;;;;;;12.65;6.38;;;;;;;;;;5008365;28;20476;-44
2023/06/04 02:48:07;;;;;;;20.08;7.18;;;;;;;;;;5010804;28;20080;-45
2023/06/04 02:50:35;;;;;;;20.17;6.70;;;;;;;;;;5011190;28;20029;-42
2023/06/04 02:53:02;;;;;;;17.60;6.70;;;;;;;;;;5011074;28;20361;-44
2023/06/04 02:55:29;;;;;;;22.58;7.50;;;;;;;;;;5011174;28;20476;-43
2023/06/04 02:57:56;;;;;;;16.20;6.45;;;;;;;;;;5010942;28;20034;-42
2023/06/04 03:00:23;;;;;;;14.50;6.38;;;;;;;;;;4990432;28;20030;-42
2023/06/04 03:02:50;;;;;;;17.58;6.95;;;;;;;;;;5010508;28;20037;-46
2023/06/04 03:05:17;;;;;;;14.75;6.60;;;;;;;;;;5003120;28;20045;-43
2023/06/04 03:07:45;;;;;;;15.02;6.68;;;;;;;;;;5009515;28;20030;-42
2023/06/04 03:10:13;;;;;;;15.52;5.43;;;;;;;;;;5010573;28;20502;-41
2023/06/04 03:12:40;;;;;;;11.43;5.63;;;;;;;;;;5010837;28;20172;-41
2023/06/04 03:15:08;;;;;;;12.95;6.10;;;;;;;;;;5011133;28;20040;-41
2023/06/04 03:17:35;;;;;;;15.25;6.90;;;;;;;;;;5008528;28;20043;-43
2023/06/04 03:20:04;;;;;;;14.23;6.05;;;;;;;;;;5010341;28;20021;-44
2023/06/04 03:22:33;;;;;;;11.07;4.97;;;;;;;;;;5011005;28;20045;-43
2023/06/04 03:25:00;;;;;;;15.82;5.63;;;;;;;;;;4993393;28;20537;-42
2023/06/04 03:27:27;;;;;;;13.00;6.00;;;;;;;;;;5011115;28;20030;-43
2023/06/04 03:29:55;;;;;;;11.10;5.85;;;;;;;;;;5007623;28;20499;-41
2023/06/04 03:32:22;;;;;;;9.68;5.43;;;;;;;;;;5010743;28;20634;-43
2023/06/04 03:34:49;;;;;;;12.80;5.45;;;;;;;;;;5011137;28;20032;-42
2023/06/04 03:37:17;;;;;;;12.65;5.40;;;;;;;;;;5011119;28;20574;-44
2023/06/04 03:39:44;;;;;;;9.50;5.20;;;;;;;;;;5011024;28;20052;-43
2023/06/04 03:42:11;;;;;;;13.10;5.20;;;;;;;;;;5010847;28;20054;-42
2023/06/04 03:44:38;;;;;;;13.98;5.50;;;;;;;;;;5014391;28;20069;-42
2023/06/04 03:47:05;;;;;;;8.13;4.75;;;;;;;;;;4996891;28;20038;-42
2023/06/04 03:49:32;;;;;;;9.02;5.50;;;;;;;;;;4997346;28;20038;-41
2023/06/04 03:51:59;;;;;;;12.07;5.63;;;;;;;;;;5014918;28;20034;-41
2023/06/04 03:54:26;;;;;;;11.15;5.70;;;;;;;;;;5014992;28;20018;-45
2023/06/04 03:56:53;;;;;;;14.95;5.22;;;;;;;;;;5013606;28;20025;-43
2023/06/04 03:59:20;;;;;;;8.40;4.97;;;;;;;;;;5014470;28;20022;-42
2023/06/04 04:01:47;;;;;;;12.10;5.30;;;;;;;;;;5008098;28;20041;-41
2023/06/04 04:04:15;;;;;;;15.45;5.88;;;;;;;;;;5014862;28;20029;-45
2023/06/04 04:06:42;;;;;;;11.10;5.30;;;;;;;;;;5014172;28;20503;-42
2023/06/04 04:09:09;;;;;;;9.80;5.20;;;;;;;;;;5014586;28;20045;-44
2023/06/04 04:11:36;;;;;;;8.23;4.57;;;;;;;;;;5014438;28;20033;-41
2023/06/04 04:14:03;;;;;;;11.70;5.32;;;;;;;;;;4996874;28;20472;-43
2023/06/04 04:16:30;;;;;;;9.32;4.63;;;;;;;;;;5014617;28;20033;-42
2023/06/04 04:18:57;;;;;;;8.93;4.95;;;;;;;;;;5014477;28;20030;-41
2023/06/04 04:21:24;;;;;;;12.23;4.80;;;;;;;;;;5014358;28;20156;-43
2023/06/04 04:23:51;;;;;;;9.60;4.68;;;;;;;;;;5013193;28;20037;-43
2023/06/04 04:26:18;;;;;;;7.07;4.35;;;;;;;;;;5014234;28;20064;-41
2023/06/04 04:28:45;;;;;;;8.05;4.25;;;;;;;;;;5013112;28;20456;-41
2023/06/04 04:31:12;;;;;;;8.48;3.92;;;;;;;;;;5016347;28;20124;-41
2023/06/04 04:33:39;;;;;;;7.93;4.40;;;;;;;;;;5013399;28;20057;-41
2023/06/04 04:36:12;;;;;;;10.93;4.35;;;;;;;;;;5013706;28;20025;-45
2023/06/04 04:38:39;;;;;;;8.70;3.90;;;;;;;;;;5012697;28;20041;-42
2023/06/04 04:41:07;;;;;;;7.70;3.70;;;;;;;;;;5012167;28;20072;-42
2023/06/04 04:43:35;;;;;;;8.50;4.30;;;;;;;;;;5013509;28;20034;-46
2023/06/04 04:46:02;;;;;;;9.18;4.18;;;;;;;;;;5004680;28;20128;-42
2023/06/04 04:48:29;;;;;;;7.80;3.63;;;;;;;;;;5004551;28;20043;-42
2023/06/04 04:50:56;;;;;;;6.28;3.92;;;;;;;;;;5003127;28;20080;-43
2023/06/04 04:53:23;;;;;;;7.38;3.75;;;;;;;;;;5003862;28;20112;-40
2023/06/04 04:55:50;;;;;;;7.68;4.03;;;;;;;;;;4987055;28;20706;-42
2023/06/04 04:58:18;;;;;;;7.25;3.92;;;;;;;;;;5002876;28;20535;-41
2023/06/04 05:00:47;;;;;;;7.22;3.80;;;;;;;;;;5004051;28;20026;-42
2023/06/04 05:03:14;;;;;;;8.98;3.90;;;;;;;;;;5004839;28;20535;-42
2023/06/04 05:05:41;;;;;;;5.72;3.33;;;;;;;;;;5003271;28;20038;-41
2023/06/04 05:08:08;;;;;;;5.88;3.47;;;;;;;;;;5003407;28;20061;-41
2023/06/04 05:10:35;;;;;;;8.40;3.88;;;;;;;;;;5004752;28;20029;-42
2023/06/04 05:13:04;;;;;;;5.95;3.67;;;;;;;;;;5002094;28;20028;-41
2023/06/04 05:15:31;;;;;;;7.40;3.55;;;;;;;;;;5004599;28;20389;-43
2023/06/04 05:18:01;;;;;;;6.40;3.88;;;;;;;;;;5004800;28;20021;-40
2023/06/04 05:20:29;;;;;;;5.28;3.10;;;;;;;;;;5012649;28;20484;-40
2023/06/04 05:22:56;;;;;;;7.53;3.58;;;;;;;;;;5014005;28;20029;-42
2023/06/04 05:25:23;;;;;;;7.38;3.70;;;;;;;;;;5013851;28;20399;-40
2023/06/04 05:27:51;;;;;;;7.65;3.40;;;;;;;;;;5013805;28;20053;-40
2023/06/04 05:30:18;;;;;;;5.40;3.20;;;;;;;;;;5013810;28;20480;-41
2023/06/04 05:32:45;;;;;;;8.32;3.63;;;;;;;;;;5013703;28;20054;-41
2023/06/04 05:35:12;;;;;;;7.07;3.17;;;;;;;;;;5013796;28;20037;-40
2023/06/04 05:37:41;;;;;;;6.20;3.38;;;;;;;;;;4995999;28;20030;-41
2023/06/04 05:40:09;;;;;;;7.85;3.22;;;;;;;;;;5013542;28;20030;-41
2023/06/04 05:42:36;;;;;;;7.03;3.03;;;;;;;;;;5013687;28;20022;-41
2023/06/04 05:45:03;;;;;;;6.00;2.65;;;;;;;;;;5013520;28;20026;-40
2023/06/04 05:47:31;;;;;;;7.50;2.85;;;;;;;;;;5013297;28;20021;-41
2023/06/04 05:49:58;;;;;;;7.57;3.33;;;;;;;;;;5013660;28;20433;-43
2023/06/04 05:52:25;;;;;;;5.38;3.17;;;;;;;;;;5013429;28;20129;-41
2023/06/04 05:54:52;;;;;;;8.38;2.97;;;;;;;;;;5013399;28;20030;-42
2023/06/04 05:57:19;;;;;;;6.45;2.90;;;;;;;;;;5013237;28;20049;-41
2023/06/04 05:59:46;;;;;;;5.22;2.70;;;;;;;;;;5013331;28;20032;-40
2023/06/04 06:02:14;;;;;;;6.85;2.80;;;;;;;;;;5024908;28;20071;-42
2023/06/04 06:04:41;;;;;;;5.18;3.00;;;;;;;;;;5032399;28;20036;-46
2023/06/04 06:07:08;;;;;;;4.55;2.47;;;;;;;;;;5032315;28;20069;-41
2023/06/04 06:09:36;;;;;;;5.32;2.67;;;;;;;;;;5032776;28;20438;-41
2023/06/04 06:12:02;;;;;;;5.53;2.95;;;;;;;;;;5032952;28;20029;-41
2023/06/04 06:14:29;;;;;;;5.53;2.75;;;;;;;;;;5032802;28;20410;-41
2023/06/04 06:16:56;;;;;;;3.80;2.50;;;;;;;;;;5032628;28;20029;-40
2023/06/04 06:19:24;;;;;;;5.43;2.80;;;;;;;;;;5032789;28;20392;-40
2023/06/04 06:21:51;;;;;;;5.72;2.65;;;;;;;;;;5032766;28;20037;-43
2023/06/04 06:24:18;;;;;;;6.53;2.90;;;;;;;;;;5032652;28;20032;-43
2023/06/04 06:26:45;;;;;;;5.35;2.60;;;;;;;;;;5032136;28;20041;-45
2023/06/04 06:29:12;;;;;;;4.07;2.40;;;;;;;;;;5032510;28;20407;-40
2023/06/04 06:31:40;;;;;;;4.78;2.55;;;;;;;;;;5032034;28;20113;-41
2023/06/04 06:34:07;;;;;;;4.65;2.90;;;;;;;;;;5032263;28;20084;-40
2023/06/04 06:36:34;;;;;;;5.43;2.40;;;;;;;;;;5032161;28;20053;-42
2023/06/04 06:39:01;;;;;;;4.07;2.72;;;;;;;;;;5032220;28;20037;-40
2023/06/04 06:41:30;;;;;;;4.35;2.17;;;;;;;;;;5032172;28;20565;-42
2023/06/04 06:43:58;;;;;;;5.15;2.40;;;;;;;;;;5032207;28;20084;-40
2023/06/04 06:46:25;;;;;;;4.05;2.33;;;;;;;;;;5032118;28;20026;-41
2023/06/04 06:48:52;;;;;;;3.95;2.40;;;;;;;;;;5032113;28;20054;-42
2023/06/04 06:51:19;;;;;;;3.33;2.20;;;;;;;;;;5032109;28;20399;-42
2023/06/04 06:53:46;;;;;;;4.43;2.30;;;;;;;;;;5032056;28;20026;-41
2023/06/04 06:56:15;;;;;;;4.05;2.08;;;;;;;;;;5032044;28;20491;-42
2023/06/04 06:58:42;;;;;;;4.20;2.55;;;;;;;;;;5031949;28;20029;-41
2023/06/04 07:01:09;;;;;;;3.72;2.22;;;;;;;;;;5031986;28;20029;-41
2023/06/04 07:03:38;;;;;;;3.13;1.80;;;;;;;;;;5032012;28;20021;-44
2023/06/04 07:06:05;;;;;;;3.60;2.00;;;;;;;;;;5031644;28;20403;-41
2023/06/04 07:08:31;;;;;;;3.17;2.00;;;;;;;;;;5031798;28;20029;-40
2023/06/04 07:10:59;;;;;;;3.47;2.03;;;;;;;;;;5031924;28;20025;-40
2023/06/04 07:13:26;;;;;;;3.78;1.90;;;;;;;;;;5031795;28;20028;-41
2023/06/04 07:15:53;;;;;;;2.47;1.88;;;;;;;;;;5031821;28;20513;-41
2023/06/04 07:18:20;;;;;;;3.72;1.70;;;;;;;;;;5031398;28;20036;-40
2023/06/04 07:20:47;;;;;;;3.95;1.90;;;;;;;;;;5031775;28;20075;-41
2023/06/04 07:23:14;;;;;;;3.35;1.63;;;;;;;;;;5031781;28;20021;-41
2023/06/04 07:25:41;;;;;;;3.75;2.00;;;;;;;;;;5031558;28;20040;-42
2023/06/04 07:28:08;;;;;;;2.42;1.70;;;;;;;;;;5031474;28;20088;-41
2023/06/04 07:30:36;;;;;;;4.80;1.95;;;;;;;;;;5031602;28;20025;-43
2023/06/04 07:33:03;;;;;;;2.30;1.70;;;;;;;;;;5031274;28;20136;-41
2023/06/04 07:35:30;;;;;;;2.08;1.52;;;;;;;;;;5031578;28;20086;-42
2023/06/04 07:37:57;;;;;;;1.95;1.42;;;;;;;;;;5031455;28;20391;-42
2023/06/04 07:40:24;;;;;;;3.33;1.60;;;;;;;;;;5031568;28;20033;-41
2023/06/04 07:42:52;;;;;;;2.50;1.50;;;;;;;;;;5031543;28;20109;-41
2023/06/04 07:45:19;;;;;;;3.00;1.65;;;;;;;;;;5031436;28;20064;-41
2023/06/04 07:47:46;;;;;;;2.67;1.52;;;;;;;;;;5031414;28;20116;-42
2023/06/04 07:50:13;;;;;;;4.03;1.52;;;;;;;;;;5031456;28;20029;-41
2023/06/04 07:52:40;;;;;;;2.00;1.30;;;;;;;;;;5031472;28;20514;-43
2023/06/04 07:55:08;;;;;;;1.95;1.38;;;;;;;;;;5031400;28;20237;-41
2023/06/04 07:57:36;;;;;;;2.67;1.30;;;;;;;;;;5031158;28;20048;-42
2023/06/04 08:00:04;;;;;;;4.32;1.30;;;;;;;;;;5013598;28;20030;-41
2023/06/04 08:02:31;;;;;;;2.20;1.42;;;;;;;;;;5031557;28;20037;-41
2023/06/04 08:04:58;;;;;;;1.63;1.30;;;;;;;;;;5031275;28;20498;-40
2023/06/04 08:07:25;;;;;;;2.83;1.20;;;;;;;;;;5031476;28;20112;-41
2023/06/04 08:09:52;;;;;;;2.35;1.33;;;;;;;;;;5031070;28;20030;-41
2023/06/04 08:12:19;;;;;;;2.25;1.23;;;;;;;;;;5031271;28;20492;-42
2023/06/04 08:14:46;;;;;;;3.38;1.38;;;;;;;;;;5031336;28;20375;-40
2023/06/04 08:17:13;;;;;;;2.53;1.38;;;;;;;;;;5031131;28;20109;-43
2023/06/04 08:19:40;;;;;;;2.25;1.30;;;;;;;;;;5031169;28;20491;-43
2023/06/04 08:22:09;;;;;;;2.13;1.00;;;;;;;;;;5031074;28;20503;-41
2023/06/04 08:24:36;;;;;;;1.80;1.30;;;;;;;;;;5031031;28;20033;-42
2023/06/04 08:27:03;;;;;;;2.28;1.20;;;;;;;;;;5030948;28;20116;-42
2023/06/04 08:29:30;;;;;;;3.15;1.33;;;;;;;;;;5033022;28;20068;-41
2023/06/04 08:31:57;;;;;;;2.17;1.33;;;;;;;;;;5034595;28;20034;-43
2023/06/04 08:34:24;;;;;;;2.05;1.23;;;;;;;;;;5034649;28;20399;-41
2023/06/04 08:36:51;;;;;;;1.40;1.13;;;;;;;;;;5034541;28;20033;-41
2023/06/04 08:39:18;;;;;;;2.22;1.30;;;;;;;;;;5034650;28;20025;-41
2023/06/04 08:41:49;;;;;;;1.70;0.93;;;;;;;;;;5034609;28;20045;-40
2023/06/04 08:44:17;;;;;;;2.37;1.50;;;;;;;;;;5034592;28;20021;-41
2023/06/04 08:46:44;;;;;;;2.55;1.00;;;;;;;;;;5034294;28;20288;-41
2023/06/04 08:49:13;;;;;;;1.95;0.88;;;;;;;;;;5034378;28;20029;-43
2023/06/04 08:51:40;;;;;;;2.88;1.30;;;;;;;;;;5034332;28;20030;-41
2023/06/04 08:54:07;;;;;;;2.13;1.10;;;;;;;;;;5034497;28;20059;-43
2023/06/04 08:56:35;;;;;;;1.50;1.00;;;;;;;;;;5034328;28;20032;-42
2023/06/04 08:59:05;;;;;;;1.80;1.08;;;;;;;;;;5034210;28;20041;-41
2023/06/04 09:01:33;;;;;;;1.73;1.02;;;;;;;;;;5034110;28;20033;-44
2023/06/04 09:04:05;;;;;;;1.67;1.00;;;;;;;;;;5034170;28;20114;-41
2023/06/04 09:06:33;;;;;;;2.60;1.30;;;;;;;;;;5033961;28;20071;-42
2023/06/04 09:09:03;;;;;;;1.38;0.90;;;;;;;;;;5034026;28;20533;-41
2023/06/04 09:11:42;;;;;;;1.33;0.80;;;;;;;;;;5033891;28;20065;-41
2023/06/04 09:14:10;;;;;;;1.85;1.20;;;;;;;;;;5033962;28;20120;-45
2023/06/04 09:16:46;;;;;;;3.70;0.90;;;;;;;;;;5016198;28;20739;-42
2023/06/04 09:19:13;;;;;;;1.63;1.08;;;;;;;;;;5033762;28;20029;-43
2023/06/04 09:22:06;;;;;;;1.77;0.90;;;;;;;;;;5033651;28;20395;-40
2023/06/04 09:24:46;;;;;;;1.30;0.82;;;;;;;;;;5031129;28;20053;-42
2023/06/04 09:27:14;;;;;;;1.10;0.77;;;;;;;;;;5021665;28;20128;-41
2023/06/04 09:29:50;;;;;;;2.08;1.05;;;;;;;;;;5013891;28;20030;-41
2023/06/04 09:32:22;;;;;;;1.45;0.90;;;;;;;;;;5013593;28;20041;-40
2023/06/04 09:34:49;;;;;;;1.83;0.85;;;;;;;;;;5013768;28;20022;-43
2023/06/04 09:37:17;;;;;;;1.60;0.90;;;;;;;;;;5013729;28;20029;-41
2023/06/04 09:39:44;;;;;;;1.80;0.90;;;;;;;;;;5013611;28;20057;-42
2023/06/04 09:42:11;;;;;;;1.95;0.80;;;;;;;;;;5013683;28;20029;-41
2023/06/04 09:44:47;;;;;;;1.48;0.88;;;;;;;;;;5013724;28;20111;-42
2023/06/04 09:47:15;;;;;;;2.22;1.00;;;;;;;;;;5013388;28;20045;-41
2023/06/04 09:49:45;;;;;;;0.82;0.65;;;;;;;;;;5013445;28;20069;-44
2023/06/04 09:52:13;;;;;;;1.27;0.73;;;;;;;;;;5013500;28;20018;-42
2023/06/04 09:54:42;;;;;;;1.67;0.90;;;;;;;;;;5013443;28;20379;-43
2023/06/04 09:57:16;;;;;;;1.70;0.70;;;;;;;;;;5013369;28;20032;-42
2023/06/04 09:59:45;;;;;;;1.48;0.90;;;;;;;;;;5013367;28;20156;-42
2023/06/04 10:02:17;;;;;;;1.25;0.90;;;;;;;;;;5013228;28;20030;-42
2023/06/04 10:04:45;;;;;;;2.92;0.80;;;;;;;;;;5013242;28;20022;-41
2023/06/04 10:07:13;;;;;;;1.10;0.70;;;;;;;;;;5013175;28;20088;-41
2023/06/04 10:09:45;;;;;;;1.52;0.90;;;;;;;;;;5013290;28;20034;-41
2023/06/04 10:12:16;;;;;;;2.65;0.70;;;;;;;;;;5012993;28;20030;-40
2023/06/04 10:14:53;;;;;;;0.90;0.77;;;;;;;;;;5013144;28;20028;-41
2023/06/04 10:17:22;;;;;;;2.78;0.93;;;;;;;;;;5012827;28;20076;-41
2023/06/04 10:19:54;;;;;;;1.25;0.75;;;;;;;;;;5013052;28;20097;-42
2023/06/04 10:22:24;;;;;;;1.40;0.80;;;;;;;;;;5012921;28;20489;-42
2023/06/04 10:24:52;;;;;;;1.83;0.90;;;;;;;;;;5012922;28;20026;-42
2023/06/04 10:27:20;;;;;;;0.88;0.63;;;;;;;;;;5012549;28;20488;-42
2023/06/04 10:29:47;;;;;;;1.67;0.82;;;;;;;;;;5012716;28;20080;-41
2023/06/04 10:32:14;;;;;;;1.00;0.65;;;;;;;;;;5012641;28;20050;-41
2023/06/04 10:34:41;;;;;;;1.50;0.82;;;;;;;;;;5030316;28;20075;-41
2023/06/04 10:37:20;;;;;;;1.35;0.68;;;;;;;;;;5032205;28;20514;-40
2023/06/04 10:39:56;;;;;;;1.45;0.80;;;;;;;;;;5032236;28;20056;-44
2023/06/04 10:42:24;;;;;;;1.35;0.70;;;;;;;;;;5032204;28;20034;-41
2023/06/04 10:44:54;;;;;;;1.83;0.60;;;;;;;;;;5032234;28;20044;-40
2023/06/04 10:47:24;;;;;;;1.95;0.80;;;;;;;;;;5032135;28;20039;-40
2023/06/04 10:49:52;;;;;;;1.70;0.68;;;;;;;;;;5031218;28;20030;-42
2023/06/04 10:52:19;;;;;;;1.58;0.93;;;;;;;;;;5031520;28;20026;-44
2023/06/04 10:54:48;;;;;;;1.80;0.70;;;;;;;;;;5032086;28;20035;-41
2023/06/04 10:57:16;;;;;;;1.55;0.80;;;;;;;;;;5031895;28;20042;-41
2023/06/04 11:00:09;;;;;;;1.60;0.60;;;;;;;;;;5032089;28;20511;-41
2023/06/04 11:02:35;;;;;;;;;;;;;;;;;;5014730;28;20116;-41
2023/06/04 11:05:06;;;;;;;1.35;0.50;;;;;;;;;;5031861;28;19913;-41
2023/06/04 11:07:43;;;;;;;1.77;0.60;;;;;;;;;;5031642;28;20037;-41
2023/06/04 11:10:11;;;;;;;0.50;0.50;;;;;;;;;;5031939;28;20514;-41
2023/06/04 11:12:45;;;;;;;1.13;0.70;;;;;;;;;;5031920;28;20448;-42
2023/06/04 11:15:12;;;;;;;1.52;0.70;;;;;;;;;;5019819;28;20030;-42
2023/06/04 11:17:49;;;;;;;1.40;0.60;;;;;;;;;;5011999;28;20033;-41
2023/06/04 11:20:20;;;;;;;1.00;0.70;;;;;;;;;;5012161;28;20097;-40
2023/06/04 11:22:57;;;;;;;1.80;0.80;;;;;;;;;;5012013;28;20120;-41
2023/06/04 11:25:26;;;;;;;1.73;0.73;;;;;;;;;;5011632;28;20068;-40
2023/06/04 11:27:55;;;;;;;1.58;0.55;;;;;;;;;;5011882;28;20022;-41
2023/06/04 11:30:22;;;;;;;1.50;0.60;;;;;;;;;;5011751;28;20040;-42
2023/06/04 11:32:49;;;;;;;2.33;0.70;;;;;;;;;;5011519;28;20066;-41
2023/06/04 11:35:16;;;;;;;0.90;0.47;;;;;;;;;;5011835;28;20030;-41
2023/06/04 11:37:53;;;;;;;1.40;0.70;;;;;;;;;;5011665;28;20476;-42
2023/06/04 11:40:21;;;;;;;1.25;0.60;;;;;;;;;;5011784;28;20037;-41
2023/06/04 11:42:48;;;;;;;1.30;0.60;;;;;;;;;;5011769;28;20113;-40
2023/06/04 11:45:16;;;;;;;1.33;0.85;;;;;;;;;;5011710;28;20080;-42
2023/06/04 11:47:50;;;;;;;1.98;0.68;;;;;;;;;;5011715;28;20026;-42
2023/06/04 11:50:17;;;;;;;2.22;0.80;;;;;;;;;;4996306;28;20056;-41
2023/06/04 11:52:44;;;;;;;1.08;0.57;;;;;;;;;;4991972;28;20388;-41
2023/06/04 11:55:12;;;;;;;1.55;0.57;;;;;;;;;;4991941;28;20436;-41
2023/06/04 11:57:40;;;;;;;1.05;0.43;;;;;;;;;;4991949;28;20031;-42
2023/06/04 12:00:11;;;;;;;2.17;0.70;;;;;;;;;;4991979;28;20033;-39
2023/06/04 12:02:38;;;;;;;2.13;0.70;;;;;;;;;;4991962;28;20484;-40
2023/06/04 12:05:20;;;;;;;0.93;0.50;;;;;;;;;;4995029;28;20026;-41
2023/06/04 12:07:50;;;;;;;1.30;0.70;;;;;;;;;;4995737;28;20089;-41
2023/06/04 12:10:18;;;;;;;5.38;0.80;;;;;;;;;;4995680;28;20519;-40
2023/06/04 12:12:45;;;;;;;1.15;0.63;;;;;;;;;;4990070;28;20045;-41
2023/06/04 12:15:13;;;;;;;1.27;0.60;;;;;;;;;;4995772;28;20050;-42
2023/06/04 12:17:54;;;;;;;1.00;0.55;;;;;;;;;;4977962;28;20489;-42
2023/06/04 12:20:43;;;;;;;5.03;0.80;;;;;;;;;;4995482;28;20034;-39
2023/06/04 12:23:21;;;;;;;2.65;0.70;;;;;;;;;;4995600;28;20500;-41
2023/06/04 12:25:51;;;;;;;2.33;0.88;;;;;;;;;;4995239;28;20054;-42
2023/06/04 12:28:18;;;;;;;1.08;0.85;;;;;;;;;;4995296;28;20042;-41
2023/06/04 12:30:45;;;;;;;1.58;0.90;;;;;;;;;;4995530;28;20026;-41
2023/06/04 12:33:12;;;;;;;3.38;0.98;;;;;;;;;;4995201;28;20053;-42
2023/06/04 12:35:39;;;;;;;1.42;0.70;;;;;;;;;;4995439;28;20034;-40
2023/06/04 12:38:09;;;;;;;2.03;0.73;;;;;;;;;;4995332;28;20085;-41
2023/06/04 12:40:36;;;;;;;2.92;0.57;;;;;;;;;;4995170;28;20116;-44
2023/06/04 12:43:03;;;;;;;2.17;0.60;;;;;;;;;;4995180;28;20026;-41
2023/06/04 12:45:30;;;;;;;2.45;0.63;;;;;;;;;;4995120;28;20397;-42
2023/06/04 12:47:57;;;;;;;2.83;0.70;;;;;;;;;;4995496;28;20033;-40
2023/06/04 12:50:23;;;;;;;3.33;0.73;;;;;;;;;;5004475;28;20042;-39
2023/06/04 12:52:50;;;;;;;3.78;0.80;;;;;;;;;;5006158;28;20037;-40
2023/06/04 12:55:17;;;;;;;1.17;0.57;;;;;;;;;;4993757;28;20091;-40
2023/06/04 12:57:45;;;;;;;1.30;0.63;;;;;;;;;;5014276;28;20508;-46
2023/06/04 13:00:16;;;;;;;2.88;0.63;;;;;;;;;;5012792;28;20034;-42
2023/06/04 13:02:43;;;;;;;2.50;0.82;;;;;;;;;;5013999;28;20108;-44
2023/06/04 13:05:10;;;;;;;2.75;0.90;;;;;;;;;;5014282;28;20022;-41
2023/06/04 13:07:37;;;;;;;3.10;0.90;;;;;;;;;;5014265;28;20491;-41
2023/06/04 13:10:04;;;;;;;3.17;0.75;;;;;;;;;;5013385;28;20042;-43
2023/06/04 13:12:31;;;;;;;2.90;0.70;;;;;;;;;;5014272;28;20026;-41
2023/06/04 13:14:58;;;;;;;4.32;0.90;;;;;;;;;;5012092;28;20050;-40
2023/06/04 13:17:25;;;;;;;2.70;0.80;;;;;;;;;;5004357;28;20033;-40
2023/06/04 13:19:52;;;;;;;3.55;0.73;;;;;;;;;;5002551;28;20113;-43
2023/06/04 13:22:19;;;;;;;5.35;1.30;;;;;;;;;;5014016;28;20026;-42
2023/06/04 13:24:46;;;;;;;8.10;0.90;;;;;;;;;;4996173;28;20029;-42
2023/06/04 13:27:13;;;;;;;7.40;0.80;;;;;;;;;;5013158;28;20038;-42
2023/06/04 13:29:40;;;;;;;7.85;1.05;;;;;;;;;;5013294;28;20064;-42
2023/06/04 13:32:07;;;;;;;5.50;1.10;;;;;;;;;;5013009;28;20046;-42
2023/06/04 13:34:34;;;;;;;8.80;1.45;;;;;;;;;;5010885;28;20464;-42
2023/06/04 13:37:01;;;;;;;8.93;1.90;;;;;;;;;;5012620;28;20529;-42
2023/06/04 13:39:28;;;;;;;6.70;1.92;;;;;;;;;;5012306;28;20030;-42
2023/06/04 13:41:55;;;;;;;10.82;2.10;;;;;;;;;;5012681;28;20116;-42
2023/06/04 13:44:26;;;;;;;12.63;2.40;;;;;;;;;;5002388;28;20030;-44
2023/06/04 13:46:53;;;;;;;9.35;2.78;;;;;;;;;;5010065;28;20053;-41
2023/06/04 13:49:21;;;;;;;13.68;3.88;;;;;;;;;;5012005;28;20125;-41
2023/06/04 13:51:48;;;;;;;37.95;18.23;;;;;;;;;;5011678;28;20049;-44
2023/06/04 13:54:15;;;;;;;66.28;34.60;;;;;;;;;;5011707;28;20053;-43
2023/06/04 13:56:42;;;;;;;50.85;26.30;;;;;;;;;;5011907;28;20041;-41
2023/06/04 13:59:09;;;;;;;35.22;18.40;;;;;;;;;;5006882;28;20472;-42
2023/06/04 14:01:36;;;;;;;30.17;12.07;;;;;;;;;;4989041;28;20515;-43
2023/06/04 14:04:06;;;;;;;24.67;11.27;;;;;;;;;;5011926;28;20018;-44
2023/06/04 14:06:35;;;;;;;34.42;11.50;;;;;;;;;;5011068;28;20050;-42
2023/06/04 14:09:02;;;;;;;31.23;9.20;;;;;;;;;;5008274;28;20057;-41
2023/06/04 14:11:29;;;;;;;23.85;7.68;;;;;;;;;;5002726;28;20041;-41
2023/06/04 14:13:56;;;;;;;24.35;7.13;;;;;;;;;;4996700;28;20137;-40
2023/06/04 14:16:23;;;;;;;21.27;7.32;;;;;;;;;;4993325;28;20199;-41
2023/06/04 14:18:50;;;;;;;20.10;6.57;;;;;;;;;;4993342;28;20504;-40
2023/06/04 14:21:18;;;;;;;16.20;6.03;;;;;;;;;;4993379;28;20034;-41
2023/06/04 14:23:45;;;;;;;12.90;5.75;;;;;;;;;;5000570;28;20116;-41
2023/06/04 14:26:12;;;;;;;13.35;5.40;;;;;;;;;;5002607;28;20033;-42
2023/06/04 14:28:39;;;;;;;15.10;4.68;;;;;;;;;;4995717;28;20112;-43
2023/06/04 14:31:06;;;;;;;17.35;4.65;;;;;;;;;;4993171;28;20030;-40
2023/06/04 14:33:35;;;;;;;12.68;5.28;;;;;;;;;;4993017;28;20496;-43
2023/06/04 14:36:02;;;;;;;21.63;5.65;;;;;;;;;;4992960;28;20062;-41
2023/06/04 14:38:29;;;;;;;25.25;5.70;;;;;;;;;;4992935;28;20026;-41
2023/06/04 14:40:56;;;;;;;17.45;6.15;;;;;;;;;;4993064;28;20109;-43
2023/06/04 14:43:30;;;;;;;18.58;6.07;;;;;;;;;;4995459;28;20018;-41